Barrow-upon-Humber, United Kingdom
Current Conditions -  °F | °C
As of 4:20 PM on Sunday 21 Dec 2014 (Local Time) from EGNJ Reporting Station
Few Clouds Few Clouds  
Wind Chill: 52°   Ceiling: Unl
Heat Index: 52°   Visibility: 6mi
Dew Point: 45°   Wind: 24mph
Humidity: 76%   Direction: 220°SW
Pressure: 29.97"   Gusts: NA
Location:  53.68°N, 0.38°W
Report Text: EGNJ 211620Z 22021KT 9999 FEW020 11/07 Q1015
Loading
Personal Weather Stations






























Interactive Weather Map New forecast layout! Learn more

10-Day Weather Forecast

Advertisements
Track Severe Weather on mobile